Time;durP1;ratioP1;P1;durP2;ratioP2;P2;SDS_P1;SDS_P2;PMS_P1;PMS_P2;Temp;Humidity;BMP_temperature;BMP_pressure;BME280_temperature;BME280_humidity;BME280_pressure;Samples;Min_cycle;Max_cycle;Signal;HPM_P1;HPM_P2
2023/11/22 00:01:03;;;;;;;;;;;;;;;6.42;100.00;96734.38;5106143;28;19939;-81
2023/11/22 00:03:29;;;;;;;;;;;;;;;6.40;100.00;96728.53;5105171;28;20129;-82
2023/11/22 00:05:55;;;;;;;;;;;;;;;6.37;100.00;96732.31;5105204;28;19938;-72
2023/11/22 00:08:21;;;;;;;;;;;;;;;6.36;100.00;96728.09;5121735;28;19949;-73
2023/11/22 00:10:46;;;;;;;;;;;;;;;6.35;100.00;96730.91;5105393;28;20002;-73
2023/11/22 00:13:12;;;;;;;;;;;;;;;6.37;100.00;96723.72;5105040;28;19935;-73
2023/11/22 00:15:38;;;;;;;;;;;;;;;6.38;100.00;96723.50;5120801;28;19940;-73
2023/11/22 00:18:04;;;;;;;;;;;;;;;6.41;100.00;96727.56;5103713;28;19952;-73
2023/11/22 00:20:30;;;;;;;;;;;;;;;6.41;100.00;96735.38;5104891;28;19935;-73
2023/11/22 00:22:56;;;;;;;;;;;;;;;6.40;100.00;96724.13;5104881;28;19939;-73
2023/11/22 00:25:22;;;;;;;;;;;;;;;6.39;100.00;96725.13;5120590;28;19946;-82
2023/11/22 00:27:48;;;;;;;;;;;;;;;6.39;100.00;96722.53;5104640;28;19947;-71
2023/11/22 00:30:14;;;;;;;;;;;;;;;6.37;100.00;96721.09;5104629;28;19958;-72
2023/11/22 00:32:40;;;;;;;;;;;;;;;6.37;100.00;96726.31;5103519;28;20112;-72
2023/11/22 00:35:07;;;;;;;;;;;;;;;6.38;100.00;96720.09;5104658;28;19973;-72
2023/11/22 00:37:34;;;;;;;;;;;;;;;6.36;100.00;96720.28;5120604;28;19963;-72
2023/11/22 00:40:06;;;;;;;;;;;;;;;6.36;100.00;96725.47;5121210;28;20212;-72
2023/11/22 00:42:32;;;;;;;;;;;;;;;6.40;100.00;96728.53;5104561;28;19945;-73
2023/11/22 00:44:57;;;;;;;;;;;;;;;6.40;100.00;96738.97;5120256;28;19959;-83
2023/11/22 00:47:23;;;;;;;;;;;;;;;6.38;100.00;96736.53;5105021;28;19940;-73
2023/11/22 00:49:49;;;;;;;;;;;;;;;6.39;100.00;96747.78;5120276;28;19946;-74
2023/11/22 00:52:15;;;;;;;;;;;;;;;6.34;100.00;96745.72;5104307;28;19952;-74
2023/11/22 00:54:41;;;;;;;;;;;;;;;6.27;100.00;96755.25;5086945;28;20231;-74
2023/11/22 00:57:07;;;;;;;;;;;;;;;6.13;100.00;96761.28;5086185;28;19937;-74
2023/11/22 00:59:32;;;;;;;;;;;;;;;5.99;100.00;96755.13;5103372;28;19943;-74
2023/11/22 01:01:58;;;;;;;;;;;;;;;5.85;100.00;96761.91;5120794;28;19999;-73
2023/11/22 01:04:24;;;;;;;;;;;;;;;5.72;100.00;96775.56;5120791;28;19951;-74
2023/11/22 01:06:50;;;;;;;;;;;;;;;5.63;100.00;96777.44;5102990;28;19945;-73
2023/11/22 01:09:16;;;;;;;;;;;;;;;5.55;100.00;96781.91;5104430;28;19948;-73
2023/11/22 01:11:43;;;;;;;;;;;;;;;5.40;100.00;96787.09;5104298;28;20253;-73
2023/11/22 01:14:09;;;;;;;;;;;;;;;5.27;100.00;96796.28;5104107;28;20137;-72
2023/11/22 01:16:36;;;;;;;;;;;;;;;5.15;100.00;96795.09;5104083;28;19946;-73
2023/11/22 01:19:02;;;;;;;;;;;;;;;5.06;100.00;96789.16;5104278;28;19945;-71
2023/11/22 01:21:28;;;;;;;;;;;;;;;4.95;100.00;96789.53;5120647;28;19971;-73
2023/11/22 01:23:54;;;;;;;;;;;;;;;4.88;100.00;96793.81;5086004;28;19945;-81
2023/11/22 01:26:20;;;;;;;;;;;;;;;4.81;100.00;96803.31;5103965;28;19933;-81
2023/11/22 01:28:46;;;;;;;;;;;;;;;4.70;100.00;96808.88;5103666;28;19940;-81
2023/11/22 01:31:13;;;;;;;;;;;;;;;4.63;100.00;96806.97;5103963;28;19953;-80
2023/11/22 01:33:39;;;;;;;;;;;;;;;4.57;100.00;96810.25;5104666;28;19955;-80
2023/11/22 01:36:05;;;;;;;;;;;;;;;4.52;100.00;96814.34;5104411;28;19934;-79
2023/11/22 01:38:31;;;;;;;;;;;;;;;4.49;100.00;96815.47;5103723;28;19964;-70
2023/11/22 01:40:56;;;;;;;;;;;;;;;4.51;100.00;96816.13;5103265;28;19952;-72
2023/11/22 01:43:23;;;;;;;;;;;;;;;4.47;100.00;96814.84;5120486;28;19944;-73
2023/11/22 01:45:50;;;;;;;;;;;;;;;4.42;100.00;96817.16;5102257;28;19946;-72
2023/11/22 01:48:16;;;;;;;;;;;;;;;4.39;100.00;96823.50;5104569;28;19937;-71
2023/11/22 01:50:42;;;;;;;;;;;;;;;4.37;100.00;96830.66;5103640;28;19963;-72
2023/11/22 01:53:09;;;;;;;;;;;;;;;4.30;100.00;96834.06;5103727;28;19939;-71
2023/11/22 01:55:36;;;;;;;;;;;;;;;4.24;100.00;96836.38;5104435;28;19936;-73
2023/11/22 01:58:03;;;;;;;;;;;;;;;4.20;100.00;96844.66;5119613;28;19943;-73
2023/11/22 02:00:33;;;;;;;;;;;;;;;4.09;100.00;96840.63;5103606;28;19934;-71
2023/11/22 02:03:00;;;;;;;;;;;;;;;4.02;100.00;96853.47;5103635;28;20121;-72
2023/11/22 02:05:25;;;;;;;;;;;;;;;3.97;100.00;96858.38;5104153;28;20110;-71
2023/11/22 02:07:52;;;;;;;;;;;;;;;3.94;100.00;96855.28;5120208;28;19939;-71
2023/11/22 02:10:18;;;;;;;;;;;;;;;3.91;100.00;96859.03;5104301;28;19936;-71
2023/11/22 02:12:43;;;;;;;;;;;;;;;3.84;100.00;96856.28;5107352;28;19938;-71
2023/11/22 02:15:09;;;;;;;;;;;;;;;3.79;100.00;96861.13;5106930;28;19946;-73
2023/11/22 02:17:36;;;;;;;;;;;;;;;3.75;100.00;96866.81;5107210;28;19950;-70
2023/11/22 02:20:06;;;;;;;;;;;;;;;3.69;100.00;96870.06;5107709;28;19936;-70
2023/11/22 02:22:31;;;;;;;;;;;;;;;3.62;100.00;96864.72;5107202;28;19939;-71
2023/11/22 02:24:57;;;;;;;;;;;;;;;3.58;100.00;96866.84;5123717;28;19991;-70
2023/11/22 02:27:23;;;;;;;;;;;;;;;3.57;100.00;96873.00;5107341;28;19943;-70
2023/11/22 02:29:50;;;;;;;;;;;;;;;3.53;100.00;96871.72;5107812;28;19945;-70
2023/11/22 02:32:15;;;;;;;;;;;;;;;3.48;100.00;96886.94;5122907;28;20145;-78
2023/11/22 02:34:41;;;;;;;;;;;;;;;3.45;100.00;96892.47;5107446;28;19952;-71
2023/11/22 02:37:08;;;;;;;;;;;;;;;3.40;100.00;96889.53;5105289;28;19960;-71
2023/11/22 02:39:41;;;;;;;;;;;;;;;3.35;100.00;96890.00;5107483;28;19944;-71
2023/11/22 02:42:07;;;;;;;;;;;;;;;3.30;100.00;96894.03;5123530;28;19941;-70
2023/11/22 02:44:33;;;;;;;;;;;;;;;3.25;100.00;96895.38;5107192;28;19959;-71
2023/11/22 02:46:59;;;;;;;;;;;;;;;3.27;100.00;96896.97;5106777;28;19938;-72
2023/11/22 02:49:25;;;;;;;;;;;;;;;3.27;100.00;96896.97;5106738;28;19935;-71
2023/11/22 02:51:51;;;;;;;;;;;;;;;3.28;100.00;96902.00;5106496;28;19958;-71
2023/11/22 02:54:17;;;;;;;;;;;;;;;3.27;100.00;96899.56;5088505;28;19943;-79
2023/11/22 02:56:42;;;;;;;;;;;;;;;3.25;100.00;96902.31;5107290;28;20205;-79
2023/11/22 02:59:13;;;;;;;;;;;;;;;3.25;100.00;96905.75;5106555;28;20229;-78
2023/11/22 03:01:42;;;;;;;;;;;;;;;3.24;100.00;96911.06;5106628;28;20106;-78
2023/11/22 03:04:08;;;;;;;;;;;;;;;3.22;100.00;96900.06;5105318;28;19931;-79
2023/11/22 03:06:36;;;;;;;;;;;;;;;3.18;100.00;96909.91;5106862;28;19947;-78
2023/11/22 03:09:02;;;;;;;;;;;;;;;3.15;100.00;96914.59;5106305;28;19950;-74
2023/11/22 03:11:27;;;;;;;;;;;;;;;3.09;100.00;96917.81;5122802;28;19954;-73
2023/11/22 03:13:53;;;;;;;;;;;;;;;3.01;100.00;96918.63;5105150;28;20024;-71
2023/11/22 03:16:19;;;;;;;;;;;;;;;2.91;100.00;96920.56;5122725;28;19956;-71
2023/11/22 03:18:46;;;;;;;;;;;;;;;2.84;100.00;96926.34;5088805;28;19950;-71
2023/11/22 03:21:11;;;;;;;;;;;;;;;2.77;100.00;96934.91;5122741;28;19939;-71
2023/11/22 03:23:40;;;;;;;;;;;;;;;2.71;100.00;96936.34;5103735;28;19938;-71
2023/11/22 03:26:06;;;;;;;;;;;;;;;2.71;100.00;96948.47;5122544;28;19944;-71
2023/11/22 03:28:33;;;;;;;;;;;;;;;2.70;100.00;96950.25;5121104;28;20130;-77
2023/11/22 03:30:59;;;;;;;;;;;;;;;2.66;100.00;96942.97;5122415;28;19952;-73
2023/11/22 03:33:25;;;;;;;;;;;;;;;2.57;100.00;96955.88;5105841;28;19983;-74
2023/11/22 03:35:50;;;;;;;;;;;;;;;2.50;100.00;96964.41;5122372;28;19942;-73
2023/11/22 03:38:17;;;;;;;;;;;;;;;2.43;100.00;96964.22;5105891;28;19966;-73
2023/11/22 03:40:43;;;;;;;;;;;;;;;2.38;100.00;96959.50;5106244;28;19945;-74
2023/11/22 03:43:10;;;;;;;;;;;;;;;2.32;100.00;96964.47;5105805;28;19933;-74
2023/11/22 03:45:36;;;;;;;;;;;;;;;2.28;100.00;96978.69;5121370;28;19966;-73
2023/11/22 03:48:01;;;;;;;;;;;;;;;2.22;100.00;96983.50;5105588;28;20220;-73
2023/11/22 03:50:27;;;;;;;;;;;;;;;2.18;100.00;96986.53;5087496;28;19950;-81
2023/11/22 03:52:53;;;;;;;;;;;;;;;2.17;100.00;96990.91;5105467;28;19951;-79
2023/11/22 03:55:19;;;;;;;;;;;;;;;2.19;100.00;96998.53;5105576;28;19937;-80
2023/11/22 03:57:45;;;;;;;;;;;;;;;2.21;100.00;97004.38;5121843;28;19938;-80
2023/11/22 04:00:11;;;;;;;;;;;;;;;2.21;100.00;97001.78;5105311;28;19941;-80
2023/11/22 04:02:37;;;;;;;;;;;;;;;2.17;100.00;97000.44;5105232;28;19933;-80
2023/11/22 04:05:03;;;;;;;;;;;;;;;2.13;100.00;97006.91;5105749;28;19935;-74
2023/11/22 04:07:29;;;;;;;;;;;;;;;2.09;100.00;97003.78;5105213;28;20111;-73
2023/11/22 04:09:55;;;;;;;;;;;;;;;2.03;100.00;97010.38;5105059;28;19944;-73
2023/11/22 04:12:22;;;;;;;;;;;;;;;2.01;100.00;97020.03;5121562;28;19958;-74
2023/11/22 04:14:48;;;;;;;;;;;;;;;2.00;100.00;97020.22;5105545;28;19941;-74
2023/11/22 04:17:13;;;;;;;;;;;;;;;1.99;100.00;97021.97;5120781;28;19952;-74
2023/11/22 04:19:39;;;;;;;;;;;;;;;2.01;100.00;97011.47;5121647;28;19942;-73
2023/11/22 04:22:05;;;;;;;;;;;;;;;2.02;100.00;97020.88;5104902;28;19945;-73
2023/11/22 04:24:31;;;;;;;;;;;;;;;1.99;100.00;97028.94;5104855;28;19942;-73
2023/11/22 04:26:58;;;;;;;;;;;;;;;1.96;100.00;97027.47;5121402;28;19950;-71
2023/11/22 04:29:24;;;;;;;;;;;;;;;1.97;100.00;97020.50;5120582;28;19939;-72
2023/11/22 04:31:49;;;;;;;;;;;;;;;1.98;100.00;97024.72;5103374;28;19951;-71
2023/11/22 04:34:15;;;;;;;;;;;;;;;1.98;100.00;97038.47;5087305;28;19940;-71
2023/11/22 04:36:41;;;;;;;;;;;;;;;1.97;100.00;97034.25;5121209;28;19949;-71
2023/11/22 04:39:07;;;;;;;;;;;;;;;1.97;100.00;97039.41;5103322;28;19964;-70
2023/11/22 04:41:34;;;;;;;;;;;;;;;1.98;100.00;97040.25;5120395;28;19943;-74
2023/11/22 04:44:00;;;;;;;;;;;;;;;2.02;100.00;97049.34;5120592;28;20117;-72
2023/11/22 04:46:26;;;;;;;;;;;;;;;2.03;100.00;97059.50;5121150;28;19977;-70
2023/11/22 04:48:52;;;;;;;;;;;;;;;2.00;100.00;97054.66;5103393;28;19933;-71
2023/11/22 04:51:17;;;;;;;;;;;;;;;2.02;100.00;97070.84;5086274;28;20002;-71
2023/11/22 04:53:44;;;;;;;;;;;;;;;2.04;100.00;97068.13;5104633;28;19987;-71
2023/11/22 04:56:09;;;;;;;;;;;;;;;2.07;100.00;97069.59;5104321;28;19946;-71
2023/11/22 04:58:35;;;;;;;;;;;;;;;2.11;100.00;97070.91;5120651;28;19935;-70
2023/11/22 05:01:01;;;;;;;;;;;;;;;2.12;100.00;97083.72;5102953;28;19951;-73
2023/11/22 05:03:27;;;;;;;;;;;;;;;2.11;100.00;97084.66;5104807;28;19934;-72
2023/11/22 05:05:53;;;;;;;;;;;;;;;2.12;100.00;97083.72;5120881;28;20250;-73
2023/11/22 05:08:19;;;;;;;;;;;;;;;2.13;100.00;97084.50;5104191;28;20266;-72
2023/11/22 05:10:45;;;;;;;;;;;;;;;2.13;100.00;97087.09;5104641;28;19978;-73
2023/11/22 05:13:10;;;;;;;;;;;;;;;2.16;100.00;97091.97;5104056;28;20001;-72
2023/11/22 05:15:36;;;;;;;;;;;;;;;2.16;100.00;97097.13;5104882;28;20231;-73
2023/11/22 05:18:02;;;;;;;;;;;;;;;2.19;100.00;97099.44;5102969;28;19985;-81
2023/11/22 05:20:28;;;;;;;;;;;;;;;2.21;100.00;97097.53;5104163;28;19945;-73
2023/11/22 05:22:54;;;;;;;;;;;;;;;2.22;100.00;97092.19;5104528;28;19936;-71
2023/11/22 05:25:20;;;;;;;;;;;;;;;2.22;100.00;97107.72;5104508;28;19939;-70
2023/11/22 05:27:46;;;;;;;;;;;;;;;2.20;100.00;97114.81;5119702;28;19968;-71
2023/11/22 05:30:12;;;;;;;;;;;;;;;2.20;100.00;97109.63;5104490;28;19939;-71
2023/11/22 05:32:38;;;;;;;;;;;;;;;2.17;100.00;97112.53;5103832;28;20116;-71
2023/11/22 05:35:06;;;;;;;;;;;;;;;2.13;100.00;97116.38;5120576;28;19946;-71
2023/11/22 05:37:32;;;;;;;;;;;;;;;2.09;100.00;97122.00;5119613;28;19963;-73
2023/11/22 05:39:59;;;;;;;;;;;;;;;2.05;100.00;97121.47;5120428;28;19954;-70
2023/11/22 05:42:25;;;;;;;;;;;;;;;2.05;100.00;97121.47;5120331;28;20122;-71
2023/11/22 05:44:50;;;;;;;;;;;;;;;2.07;100.00;97113.56;5119669;28;19957;-71
2023/11/22 05:47:18;;;;;;;;;;;;;;;2.06;100.00;97120.53;5107081;28;19944;-70
2023/11/22 05:49:44;;;;;;;;;;;;;;;2.06;100.00;97114.50;5123727;28;20089;-71
2023/11/22 05:52:09;;;;;;;;;;;;;;;2.04;100.00;97122.44;5107743;28;19953;-71
2023/11/22 05:54:36;;;;;;;;;;;;;;;2.00;100.00;97126.28;5106616;28;19935;-70
2023/11/22 05:57:02;;;;;;;;;;;;;;;1.96;100.00;97130.94;5107652;28;20140;-79
2023/11/22 05:59:28;;;;;;;;;;;;;;;1.96;100.00;97137.88;5107675;28;19942;-74
2023/11/22 06:01:54;;;;;;;;;;;;;;;1.92;100.00;97134.75;5108369;28;19945;-74
2023/11/22 06:04:20;;;;;;;;;;;;;;;1.88;100.00;97138.59;5108101;28;19940;-74
2023/11/22 06:06:46;;;;;;;;;;;;;;;1.85;100.00;97138.06;5123246;28;19937;-74
2023/11/22 06:09:14;;;;;;;;;;;;;;;1.82;100.00;97142.56;5107960;28;19941;-74
2023/11/22 06:11:40;;;;;;;;;;;;;;;1.80;100.00;97149.66;5108082;28;19950;-73
2023/11/22 06:14:06;;;;;;;;;;;;;;;1.81;100.00;97155.66;5107386;28;19943;-72
2023/11/22 06:16:32;;;;;;;;;;;;;;;1.80;100.00;97159.19;5107402;28;19939;-72
2023/11/22 06:18:58;;;;;;;;;;;;;;;1.80;100.00;97166.97;5123176;28;19955;-72
2023/11/22 06:21:26;;;;;;;;;;;;;;;1.81;100.00;97172.00;5108010;28;19931;-72
2023/11/22 06:23:55;;;;;;;;;;;;;;;1.81;100.00;97181.53;5123812;28;19952;-73
2023/11/22 06:26:21;;;;;;;;;;;;;;;1.76;100.00;97176.75;5107401;28;19938;-72
2023/11/22 06:28:49;;;;;;;;;;;;;;;1.75;100.00;97188.09;5107544;28;19981;-73
2023/11/22 06:31:15;;;;;;;;;;;;;;;1.75;100.00;97195.03;5106932;28;19940;-73
2023/11/22 06:33:41;;;;;;;;;;;;;;;1.75;100.00;97195.84;5107056;28;19940;-72
2023/11/22 06:36:09;;;;;;;;;;;;;;;1.76;100.00;97197.47;5106986;28;19944;-73
2023/11/22 06:38:35;;;;;;;;;;;;;;;1.77;100.00;97196.50;5106822;28;19982;-73
2023/11/22 06:41:01;;;;;;;;;;;;;;;1.78;100.00;97205.88;5107338;28;19939;-73
2023/11/22 06:43:26;;;;;;;;;;;;;;;1.82;100.00;97209.81;5106788;28;20215;-73
2023/11/22 06:45:52;;;;;;;;;;;;;;;1.83;100.00;97213.25;5105738;28;19945;-73
2023/11/22 06:48:18;;;;;;;;;;;;;;;1.86;100.00;97217.31;5123106;28;19946;-74
2023/11/22 06:50:44;;;;;;;;;;;;;;;1.85;100.00;97215.66;5107160;28;19934;-75
2023/11/22 06:53:11;;;;;;;;;;;;;;;1.85;100.00;97213.06;5106557;28;19950;-73
2023/11/22 06:55:38;;;;;;;;;;;;;;;1.83;100.00;97221.00;5122384;28;20258;-79
2023/11/22 06:58:06;;;;;;;;;;;;;;;1.83;100.00;97224.38;5105174;28;20124;-79
2023/11/22 07:00:32;;;;;;;;;;;;;;;1.83;100.00;97226.97;5106972;28;20137;-79
2023/11/22 07:02:58;;;;;;;;;;;;;;;1.83;100.00;97226.97;5107192;28;19944;-79
2023/11/22 07:05:24;;;;;;;;;;;;;;;1.83;100.00;97226.16;5106457;28;20154;-79
2023/11/22 07:07:50;;;;;;;;;;;;;;;1.81;100.00;97230.66;5106627;28;19979;-79
2023/11/22 07:10:16;;;;;;;;;;;;;;;1.82;100.00;97230.50;5122181;28;20223;-74
2023/11/22 07:12:43;;;;;;;;;;;;;;;1.81;100.00;97241.00;5122277;28;19955;-79
2023/11/22 07:15:09;;;;;;;;;;;;;;;1.87;100.00;97242.19;5122813;28;19946;-80
2023/11/22 07:17:36;;;;;;;;;;;;;;;1.91;100.00;97241.78;5106117;28;20250;-78
2023/11/22 07:20:02;;;;;;;;;;;;;;;1.95;100.00;97244.88;5106194;28;19939;-80
2023/11/22 07:22:30;;;;;;;;;;;;;;;1.97;100.00;97256.69;5106063;28;19940;-81
2023/11/22 07:24:59;;;;;;;;;;;;;;;1.95;100.00;97255.22;5106038;28;19936;-81
2023/11/22 07:27:25;;;;;;;;;;;;;;;1.91;100.00;97254.72;5106167;28;19931;-76
2023/11/22 07:29:52;;;;;;;;;;;;;;;1.87;100.00;97263.72;5104834;28;19949;-73
2023/11/22 07:32:20;;;;;;;;;;;;;;;1.83;100.00;97263.19;5106507;28;19952;-73
2023/11/22 07:34:46;;;;;;;;;;;;;;;1.82;100.00;97271.06;5104551;28;19946;-73
2023/11/22 07:37:13;;;;;;;;;;;;;;;1.82;100.00;97271.88;5106009;28;19984;-73
2023/11/22 07:39:39;;;;;;;;;;;;;;;1.86;100.00;97275.00;5106503;28;19939;-74
2023/11/22 07:42:08;;;;;;;;;;;;;;;1.88;100.00;97275.69;5121431;28;19942;-73
2023/11/22 07:44:35;;;;;;;;;;;;;;;1.90;100.00;97285.91;5121248;28;19961;-73
2023/11/22 07:47:02;;;;;;;;;;;;;;;1.91;100.00;97284.91;5104416;28;19945;-70
2023/11/22 07:49:28;;;;;;;;;;;;;;;1.96;100.00;97295.69;5121463;28;20167;-73
2023/11/22 07:51:55;;;;;;;;;;;;;;;1.94;100.00;97295.81;5121104;28;19961;-73
2023/11/22 07:54:22;;;;;;;;;;;;;;;1.92;100.00;97300.31;5105699;28;19939;-72
2023/11/22 07:56:48;;;;;;;;;;;;;;;1.89;100.00;97292.00;5105824;28;19946;-73
2023/11/22 07:59:15;;;;;;;;;;;;;;;1.90;100.00;97299.63;5105487;28;19943;-73
2023/11/22 08:01:44;;;;;;;;;;;;;;;1.92;100.00;97291.75;5105777;28;19942;-73
2023/11/22 08:04:10;;;;;;;;;;;;;;;1.94;100.00;97292.41;5105191;28;20078;-79
2023/11/22 08:06:36;;;;;;;;;;;;;;;1.95;100.00;97286.28;5106049;28;19972;-75
2023/11/22 08:09:04;;;;;;;;;;;;;;;1.94;100.00;97287.25;5104381;28;19939;-73
2023/11/22 08:11:31;;;;;;;;;;;;;;;1.93;100.00;97291.59;5104856;28;19951;-74
2023/11/22 08:13:57;;;;;;;;;;;;;;;1.94;100.00;97292.41;5105111;28;19945;-73
2023/11/22 08:16:23;;;;;;;;;;;;;;;1.98;100.00;97297.16;5103891;28;19945;-73
2023/11/22 08:18:49;;;;;;;;;;;;;;;2.03;100.00;97294.94;5086923;28;19965;-73
2023/11/22 08:21:15;;;;;;;;;;;;;;;2.06;100.00;97299.03;5121603;28;19982;-74
2023/11/22 08:23:41;;;;;;;;;;;;;;;2.07;100.00;97292.88;5121600;28;19944;-74
2023/11/22 08:26:08;;;;;;;;;;;;;;;2.04;100.00;97295.78;5105223;28;19999;-73
2023/11/22 08:28:34;;;;;;;;;;;;;;;2.01;100.00;97298.63;5121538;28;19930;-73
2023/11/22 08:31:00;;;;;;;;;;;;;;;2.40;100.00;97299.25;5120696;28;20228;-73
2023/11/22 08:33:26;;;;;;;;;;;;;;;3.13;100.00;97292.31;5121217;28;19964;-73
2023/11/22 08:35:58;;;;;;;;;;;;;;;3.90;100.00;97303.69;5120621;28;19935;-73
2023/11/22 08:38:24;;;;;;;;;;;;;;;4.16;100.00;97295.03;5103651;28;19984;-72
2023/11/22 08:40:50;;;;;;;;;;;;;;;3.76;100.00;97299.06;5120586;28;19940;-77
2023/11/22 08:43:16;;;;;;;;;;;;;;;3.31;100.00;97300.91;5104966;28;19946;-78
2023/11/22 08:45:43;;;;;;;;;;;;;;;2.93;100.00;97310.63;5105093;28;19969;-78
2023/11/22 08:48:09;;;;;;;;;;;;;;;2.67;100.00;97304.53;5104595;28;19947;-78
2023/11/22 08:50:35;;;;;;;;;;;;;;;2.46;100.00;97307.41;5104476;28;19933;-79
2023/11/22 08:53:01;;;;;;;;;;;;;;;2.32;100.00;97309.53;5105176;28;19955;-79
2023/11/22 08:55:27;;;;;;;;;;;;;;;2.20;100.00;97311.47;5103502;28;19960;-78
2023/11/22 08:57:53;;;;;;;;;;;;;;;2.11;100.00;97327.06;5104375;28;19935;-79
2023/11/22 09:00:22;;;;;;;;;;;;;;;2.05;100.00;97319.88;5104847;28;20119;-73
2023/11/22 09:02:48;;;;;;;;;;;;;;;2.03;100.00;97327.78;5104336;28;19942;-73
2023/11/22 09:05:16;;;;;;;;;;;;;;;2.02;100.00;97324.38;5104288;28;19927;-72
2023/11/22 09:07:44;;;;;;;;;;;;;;;2.06;100.00;97313.72;5120042;28;20011;-73
2023/11/22 09:10:10;;;;;;;;;;;;;;;2.07;100.00;97317.97;5120883;28;19939;-72
2023/11/22 09:12:39;;;;;;;;;;;;;;;2.03;100.00;97320.81;5104890;28;19949;-73
2023/11/22 09:15:09;;;;;;;;;;;;;;;2.03;100.00;97314.84;5119467;28;19945;-73
2023/11/22 09:17:36;;;;;;;;;;;;;;;2.00;100.00;97309.97;5104996;28;19930;-71
2023/11/22 09:20:03;;;;;;;;;;;;;;;2.01;100.00;97312.38;5119153;28;19939;-72
2023/11/22 09:22:29;;;;;;;;;;;;;;;2.00;100.00;97308.19;5119815;28;20149;-70
2023/11/22 09:24:54;;;;;;;;;;;;;;;2.00;100.00;97303.00;5102855;28;19936;-70
2023/11/22 09:27:20;;;;;;;;;;;;;;;2.04;100.00;97313.88;5103583;28;19937;-70
2023/11/22 09:29:46;;;;;;;;;;;;;;;2.07;100.00;97305.81;5104061;28;19943;-70
2023/11/22 09:32:13;;;;;;;;;;;;;;;2.11;100.00;97309.75;5103562;28;20125;-70
2023/11/22 09:34:38;;;;;;;;;;;;;;;2.12;100.00;97310.56;5104054;28;19930;-70
2023/11/22 09:37:04;;;;;;;;;;;;;;;2.11;100.00;97312.34;5119680;28;19958;-71
2023/11/22 09:39:30;;;;;;;;;;;;;;;2.07;100.00;97312.78;5104563;28;19956;-73
2023/11/22 09:41:56;;;;;;;;;;;;;;;2.06;100.00;97314.56;5120549;28;19949;-73
2023/11/22 09:44:22;;;;;;;;;;;;;;;2.02;100.00;97315.81;5103858;28;19985;-73
2023/11/22 09:46:48;;;;;;;;;;;;;;;2.00;100.00;97328.06;5086615;28;19931;-73
2023/11/22 09:49:16;;;;;;;;;;;;;;;1.97;100.00;97323.97;5120521;28;19943;-73
2023/11/22 09:51:43;;;;;;;;;;;;;;;1.97;100.00;97323.97;5119626;28;19940;-73
2023/11/22 09:54:14;;;;;;;;;;;;;;;1.98;100.00;97327.38;5104309;28;19954;-73
2023/11/22 09:56:41;;;;;;;;;;;;;;;1.96;100.00;97334.47;5104589;28;19939;-73
2023/11/22 09:59:08;;;;;;;;;;;;;;;1.94;100.00;97344.16;5103373;28;19993;-74
2023/11/22 10:01:36;;;;;;;;;;;;;;;1.94;100.00;97344.97;5120140;28;19933;-74
2023/11/22 10:04:05;;;;;;;;;;;;;;;1.94;100.00;97346.75;5119606;28;20142;-73
2023/11/22 10:06:34;;;;;;;;;;;;;;;1.93;100.00;97356.28;5085733;28;20227;-74
2023/11/22 10:09:07;;;;;;;;;;;;;;;1.90;100.00;97360.91;5103748;28;19942;-73
2023/11/22 10:11:38;;;;;;;;;;;;;;;1.88;100.00;97362.81;5103701;28;19936;-74
2023/11/22 10:14:04;;;;;;;;;;;;;;;1.88;100.00;97365.41;5120294;28;19947;-74
2023/11/22 10:16:30;;;;;;;;;;;;;;;1.88;100.00;97365.41;5102579;28;19984;-74
2023/11/22 10:18:57;;;;;;;;;;;;;;;1.86;100.00;97365.53;5120185;28;19936;-74
2023/11/22 10:21:24;;;;;;;;;;;;;;;1.87;100.00;97371.50;5085609;28;20119;-74
2023/11/22 10:23:52;;;;;;;;;;;;;;;1.88;100.00;97370.56;5119385;28;19936;-73
2023/11/22 10:26:19;;;;;;;;;;;;;;;1.89;100.00;97377.38;5104375;28;20237;-74
2023/11/22 10:28:45;;;;;;;;;;;;;;;1.86;100.00;97360.38;5102297;28;19945;-74
2023/11/22 10:31:11;;;;;;;;;;;;;;;1.86;100.00;97359.56;5119398;28;19943;-73
2023/11/22 10:33:42;;;;;;;;;;;;;;;1.86;100.00;97356.97;5107864;28;20246;-71
2023/11/22 10:36:08;;;;;;;;;;;;;;;1.87;100.00;97362.00;5123728;28;19945;-71
2023/11/22 10:38:35;;;;;;;;;;;;;;;1.85;100.00;97356.16;5088880;28;19973;-71
2023/11/22 10:41:05;;;;;;;;;;;;;;;1.86;100.00;97357.78;5122860;28;19955;-71
2023/11/22 10:43:34;;;;;;;;;;;;;;;1.87;100.00;97364.59;5106516;28;19958;-71
2023/11/22 10:46:04;;;;;;;;;;;;;;;1.86;100.00;97356.97;5105826;28;19938;-71
2023/11/22 10:48:32;;;;;;;;;;;;;;;1.86;100.00;97357.78;5122720;28;19935;-71
2023/11/22 10:51:00;;;;;;;;;;;;;;;1.87;100.00;97356.84;5085384;28;19943;-77
2023/11/22 10:53:32;;;;;;;;;;;;;;;1.89;100.00;97361.84;5068189;28;19953;-78
2023/11/22 10:56:02;;;;;;;;;;;;;;;1.85;100.00;97366.50;5068683;28;19944;-78
2023/11/22 10:58:32;;;;;;;;;;;;;;;1.85;100.00;97357.91;5084601;28;20137;-78
2023/11/22 11:00:58;;;;;;;;;;;;;;;1.86;100.00;97368.13;5084773;28;19949;-78
2023/11/22 11:03:29;;;;;;;;;;;;;;;1.88;100.00;97375.75;5084541;28;19939;-78
2023/11/22 11:05:58;;;;;;;;;;;;;;;1.86;100.00;97382.84;5068618;28;19945;-78
2023/11/22 11:08:28;;;;;;;;;;;;;;;1.84;100.00;97388.13;5085283;28;19964;-71
2023/11/22 11:10:58;;;;;;;;;;;;;;;1.84;100.00;97393.31;5067683;28;19932;-78
2023/11/22 11:13:24;;;;;;;;;;;;;;;1.85;100.00;97396.69;5068147;28;20202;-73
2023/11/22 11:15:51;;;;;;;;;;;;;;;1.81;100.00;97389.25;5050913;28;19952;-73
2023/11/22 11:18:17;;;;;;;;;;;;;;;1.82;100.00;97393.44;5085099;28;19939;-73
2023/11/22 11:20:51;;;;;;;;;;;;;;;1.82;100.00;97401.19;5084216;28;19934;-73
2023/11/22 11:23:17;;;;;;;;;;;;;;;1.86;100.00;97398.34;5105525;28;20119;-73
2023/11/22 11:25:43;;;;;;;;;;;;;;;1.86;100.00;97403.53;5106573;28;20212;-73
2023/11/22 11:28:12;;;;;;;;;;;;;;;1.88;100.00;97402.44;5105537;28;19977;-72
2023/11/22 11:30:45;;;;;;;;;;;;;;;1.93;100.00;97404.59;5106682;28;20210;-73
2023/11/22 11:33:18;;;;;;;;;;;;;;;1.96;100.00;97404.31;5087808;28;19951;-72
2023/11/22 11:35:46;;;;;;;;;;;;;;;2.00;100.00;97413.44;5106391;28;19938;-73
2023/11/22 11:38:13;;;;;;;;;;;;;;;2.02;100.00;97411.53;5105666;28;19966;-73
2023/11/22 11:40:43;;;;;;;;;;;;;;;2.00;100.00;97408.25;5121698;28;19948;-73
2023/11/22 11:43:12;;;;;;;;;;;;;;;2.00;100.00;97403.09;5103330;28;19943;-74
2023/11/22 11:45:39;;;;;;;;;;;;;;;1.97;100.00;97401.56;5121616;28;19934;-79
2023/11/22 11:48:06;;;;;;;;;;;;;;;1.98;100.00;97402.41;5104639;28;20244;-70
2023/11/22 11:50:32;;;;;;;;;;;;;;;2.00;100.00;97405.69;5121458;28;19940;-70
2023/11/22 11:52:58;;;;;;;;;;;;;;;2.00;100.00;97410.84;5122164;28;20242;-71
2023/11/22 11:55:25;;;;;;;;;;;;;;;2.00;100.00;97414.25;5105155;28;19932;-70
2023/11/22 11:57:53;;;;;;;;;;;;;;;1.99;100.00;97415.19;5122079;28;19937;-71
2023/11/22 12:00:20;;;;;;;;;;;;;;;1.98;100.00;97423.09;5121316;28;19937;-71
2023/11/22 12:02:48;;;;;;;;;;;;;;;2.01;100.00;97421.03;5121212;28;19938;-71
2023/11/22 12:05:13;;;;;;;;;;;;;;;2.05;100.00;97428.53;5105346;28;19948;-70
2023/11/22 12:07:39;;;;;;;;;;;;;;;2.09;100.00;97432.47;5121103;28;19943;-74
2023/11/22 12:10:08;;;;;;;;;;;;;;;2.08;100.00;97436.84;5105275;28;19937;-73
2023/11/22 12:12:34;;;;;;;;;;;;;;;2.06;100.00;97441.34;5105953;28;19943;-73
2023/11/22 12:15:00;;;;;;;;;;;;;;;2.06;100.00;97445.69;5105686;28;19936;-73
2023/11/22 12:17:27;;;;;;;;;;;;;;;2.09;100.00;97450.59;5105146;28;19977;-73
2023/11/22 12:19:53;;;;;;;;;;;;;;;2.08;100.00;97465.31;5105021;28;19930;-73
2023/11/22 12:22:20;;;;;;;;;;;;;;;2.04;100.00;97469.13;5105890;28;19938;-70
2023/11/22 12:24:46;;;;;;;;;;;;;;;1.98;100.00;97449.78;5120938;28;19939;-78
2023/11/22 12:27:12;;;;;;;;;;;;;;;1.93;100.00;97461.50;5119864;28;19945;-77
2023/11/22 12:29:39;;;;;;;;;;;;;;;1.92;100.00;97462.47;5104862;28;19995;-79
2023/11/22 12:32:05;;;;;;;;;;;;;;;1.92;100.00;97472.81;5105588;28;19944;-78
2023/11/22 12:34:33;;;;;;;;;;;;;;;1.93;100.00;97469.25;5104721;28;19953;-77
2023/11/22 12:36:59;;;;;;;;;;;;;;;1.90;100.00;97465.19;5105072;28;20262;-77
2023/11/22 12:39:25;;;;;;;;;;;;;;;1.90;100.00;97474.72;5105444;28;19936;-77
2023/11/22 12:41:51;;;;;;;;;;;;;;;1.88;100.00;97466.28;5104731;28;19978;-72
2023/11/22 12:44:17;;;;;;;;;;;;;;;1.85;100.00;97467.38;5104855;28;19969;-71